Time;durP1;ratioP1;P1;durP2;ratioP2;P2;SDS_P1;SDS_P2;PMS_P1;PMS_P2;Temp;Humidity;BMP_temperature;BMP_pressure;BME280_temperature;BME280_humidity;BME280_pressure;Samples;Min_cycle;Max_cycle;Signal;HPM_P1;HPM_P2
2022/09/03 00:01:53;;;;;;;2.23;1.80;;;19.20;56.40;;;;;;5037126;28;20970;-70
2022/09/03 00:04:42;;;;;;;1.90;1.80;;;19.10;56.50;;;;;;5045314;28;20446;-69
2022/09/03 00:07:17;;;;;;;1.90;1.80;;;19.00;56.60;;;;;;5033250;28;20479;-70
2022/09/03 00:09:48;;;;;;;2.00;1.90;;;19.00;56.60;;;;;;5024817;28;20455;-70
2022/09/03 00:12:28;;;;;;;2.73;2.10;;;19.00;56.70;;;;;;5026087;28;20467;-71
2022/09/03 00:15:03;;;;;;;2.93;2.00;;;19.00;56.60;;;;;;5040795;28;20458;-71
2022/09/03 00:17:34;;;;;;;1.77;1.67;;;18.90;56.60;;;;;;5026483;28;21073;-71
2022/09/03 00:20:06;;;;;;;1.50;1.40;;;18.90;56.70;;;;;;5042885;28;20458;-69
2022/09/03 00:23:03;;;;;;;2.13;1.77;;;18.90;56.70;;;;;;5035263;28;20459;-71
2022/09/03 00:25:39;;;;;;;2.40;2.20;;;18.90;56.80;;;;;;5037814;28;20569;-71
2022/09/03 00:28:17;;;;;;;1.97;1.77;;;18.90;56.80;;;;;;5037778;28;20458;-70
2022/09/03 00:30:46;;;;;;;3.07;1.80;;;18.80;56.70;;;;;;5041010;28;20919;-71
2022/09/03 00:33:22;;;;;;;1.77;1.67;;;18.80;56.70;;;;;;5027088;28;20455;-70
2022/09/03 00:36:15;;;;;;;2.17;1.63;;;18.70;56.80;;;;;;5048650;28;20454;-70
2022/09/03 00:38:41;;;;;;;1.70;1.60;;;18.70;56.80;;;;;;5061553;28;20468;-71
2022/09/03 00:41:21;;;;;;;2.07;1.70;;;18.70;56.80;;;;;;5046609;28;20454;-71
2022/09/03 00:44:08;;;;;;;2.60;1.70;;;18.70;56.90;;;;;;5044685;28;20266;-71
2022/09/03 00:46:37;;;;;;;2.60;2.07;;;18.70;56.80;;;;;;5044312;28;20485;-70
2022/09/03 00:49:13;;;;;;;2.00;1.63;;;18.60;56.90;;;;;;5046023;28;20461;-70
2022/09/03 00:51:56;;;;;;;2.43;1.83;;;18.60;56.90;;;;;;5044497;28;20480;-70
2022/09/03 00:54:43;;;;;;;1.93;1.60;;;18.60;56.90;;;;;;5040741;28;20458;-70
2022/09/03 00:57:24;;;;;;;1.87;1.77;;;18.60;56.90;;;;;;5057591;28;20479;-71
2022/09/03 01:00:12;;;;;;;1.87;1.77;;;18.60;56.90;;;;;;5046806;28;20458;-70
2022/09/03 01:03:06;;;;;;;1.50;1.40;;;18.50;57.00;;;;;;5048462;28;20958;-71
2022/09/03 01:05:42;;;;;;;3.30;1.80;;;18.50;57.50;;;;;;5033616;28;20482;-71
2022/09/03 01:08:35;;;;;;;1.80;1.70;;;18.40;57.00;;;;;;5047512;28;20454;-71
2022/09/03 01:11:31;;;;;;;1.60;1.50;;;18.40;57.10;;;;;;5046883;28;20974;-71
2022/09/03 01:14:38;;;;;;;2.03;1.93;;;18.40;57.10;;;;;;5045366;28;21019;-70
2022/09/03 01:17:23;;;;;;;2.00;1.80;;;18.40;57.10;;;;;;5012121;28;20466;-70
2022/09/03 01:20:07;;;;;;;1.70;1.60;;;18.30;57.20;;;;;;5030375;28;20748;-70
2022/09/03 01:22:56;;;;;;;1.60;1.50;;;18.30;57.30;;;;;;5050111;28;20450;-69
2022/09/03 01:25:34;;;;;;;2.10;1.90;;;18.30;57.30;;;;;;5044500;28;20473;-71
2022/09/03 01:28:19;;;;;;;1.97;1.40;;;18.20;57.30;;;;;;5062818;28;20466;-70
2022/09/03 01:30:58;;;;;;;1.60;1.50;;;18.30;57.40;;;;;;5044778;28;20481;-70
2022/09/03 01:33:24;;;;;;;1.90;1.80;;;18.20;57.30;;;;;;5027654;28;20459;-70
2022/09/03 01:36:03;;;;;;;2.20;2.10;;;18.20;57.40;;;;;;5032828;28;20454;-69
2022/09/03 01:38:42;;;;;;;2.03;1.93;;;18.20;57.40;;;;;;5046769;28;20469;-71
2022/09/03 01:44:22;;;;;;;2.40;2.20;;;18.20;57.50;;;;;;5041019;28;21000;-69
2022/09/03 01:47:07;;;;;;;3.40;1.87;;;18.20;57.60;;;;;;5030262;28;20470;-70
2022/09/03 01:50:01;;;;;;;2.00;1.90;;;18.20;58.00;;;;;;5046855;28;20469;-70
2022/09/03 01:53:11;;;;;;;1.70;1.60;;;18.20;57.70;;;;;;5030530;28;20537;-70
2022/09/03 01:56:14;;;;;;;4.60;1.90;;;18.20;57.80;;;;;;4989148;28;20456;-69
2022/09/03 01:58:54;;;;;;;1.90;1.80;;;18.10;57.70;;;;;;5047149;28;20458;-70
2022/09/03 02:01:42;;;;;;;2.10;1.97;;;18.10;57.70;;;;;;5046521;28;20489;-69
2022/09/03 02:04:23;;;;;;;2.00;1.90;;;18.10;57.80;;;;;;5016466;28;20507;-69
2022/09/03 02:06:56;;;;;;;1.90;1.80;;;18.10;57.80;;;;;;5039685;28;20474;-70
2022/09/03 02:09:22;;;;;;;2.30;2.10;;;18.10;57.90;;;;;;5044969;28;20874;-71
2022/09/03 02:11:59;;;;;;;3.30;1.90;;;18.10;57.90;;;;;;5025943;28;20542;-71
2022/09/03 02:14:26;;;;;;;1.87;1.77;;;18.10;57.90;;;;;;5060934;28;20523;-71
2022/09/03 02:16:54;;;;;;;1.90;1.80;;;18.10;57.90;;;;;;5044922;28;20494;-69
2022/09/03 02:19:20;;;;;;;2.03;1.83;;;18.10;58.00;;;;;;5045494;28;20973;-71
2022/09/03 02:21:55;;;;;;;1.70;1.60;;;18.10;58.10;;;;;;5043119;28;20465;-71
2022/09/03 02:24:21;;;;;;;2.73;1.80;;;18.10;57.90;;;;;;5043158;28;20235;-69
2022/09/03 02:26:46;;;;;;;1.60;1.50;;;18.10;58.00;;;;;;5036732;28;20505;-69
2022/09/03 02:29:14;;;;;;;2.17;2.07;;;18.10;58.00;;;;;;5061363;28;20218;-71
2022/09/03 02:31:40;;;;;;;2.07;1.70;;;18.10;58.00;;;;;;5046603;28;20327;-70
2022/09/03 02:34:06;;;;;;;2.10;2.00;;;18.10;58.20;;;;;;5058900;28;21026;-69
2022/09/03 02:36:34;;;;;;;4.33;1.90;;;18.10;58.30;;;;;;5046230;28;20223;-70
2022/09/03 02:39:00;;;;;;;2.20;2.00;;;18.10;58.40;;;;;;5044346;28;20283;-70
2022/09/03 02:41:26;;;;;;;1.90;1.80;;;18.10;58.40;;;;;;5026418;28;20547;-70
2022/09/03 02:44:10;;;;;;;1.77;1.67;;;18.10;58.40;;;;;;5031182;28;20684;-70
2022/09/03 02:46:58;;;;;;;1.77;1.67;;;18.10;58.20;;;;;;5045614;28;20550;-70
2022/09/03 02:49:24;;;;;;;2.10;2.00;;;18.10;58.30;;;;;;5040865;28;20466;-71
2022/09/03 02:51:49;;;;;;;1.73;1.63;;;18.10;58.30;;;;;;5025862;28;20956;-70
2022/09/03 02:54:15;;;;;;;2.10;2.00;;;18.00;58.10;;;;;;5042303;28;20215;-71
2022/09/03 02:56:42;;;;;;;2.40;1.90;;;18.00;58.30;;;;;;5046891;28;20235;-70
2022/09/03 02:59:08;;;;;;;1.70;1.60;;;18.00;58.40;;;;;;5027150;28;20212;-69
2022/09/03 03:01:36;;;;;;;1.90;1.80;;;18.00;58.70;;;;;;5044837;28;20554;-70
2022/09/03 03:04:02;;;;;;;2.20;2.00;;;18.00;58.30;;;;;;5044381;28;20501;-70
2022/09/03 03:06:27;;;;;;;2.03;1.77;;;18.00;58.30;;;;;;5045505;28;20474;-71
2022/09/03 03:08:54;;;;;;;2.67;1.80;;;18.00;58.30;;;;;;5038923;28;20243;-71
2022/09/03 03:11:21;;;;;;;2.10;1.90;;;18.00;58.30;;;;;;5042687;28;20223;-69
2022/09/03 03:13:47;;;;;;;2.53;2.33;;;18.00;58.20;;;;;;5046428;28;20466;-70
2022/09/03 03:16:14;;;;;;;1.77;1.67;;;18.00;58.30;;;;;;5040918;28;20451;-71
2022/09/03 03:18:41;;;;;;;1.77;1.67;;;18.00;58.30;;;;;;5038234;28;20204;-70
2022/09/03 03:21:12;;;;;;;1.60;1.50;;;18.00;58.30;;;;;;5042938;28;20811;-71
2022/09/03 03:23:38;;;;;;;2.00;1.90;;;18.00;58.30;;;;;;5025528;28;20460;-70
2022/09/03 03:26:07;;;;;;;2.10;1.90;;;18.00;58.30;;;;;;5031573;28;21020;-70
2022/09/03 03:28:34;;;;;;;2.00;1.60;;;18.00;58.20;;;;;;5045307;28;20511;-70
2022/09/03 03:31:11;;;;;;;2.57;2.10;;;18.00;58.30;;;;;;5028905;28;20482;-70
2022/09/03 03:33:38;;;;;;;2.27;2.17;;;18.00;58.40;;;;;;5041958;28;20466;-69
2022/09/03 03:36:06;;;;;;;1.77;1.67;;;18.00;58.30;;;;;;5042961;28;20464;-70
2022/09/03 03:38:32;;;;;;;4.20;1.73;;;18.00;58.30;;;;;;5046142;28;20461;-70
2022/09/03 03:40:58;;;;;;;1.93;1.83;;;18.00;58.30;;;;;;5043339;28;20461;-71
2022/09/03 03:43:24;;;;;;;1.70;1.60;;;18.00;58.30;;;;;;5046534;28;20454;-71
2022/09/03 03:45:59;;;;;;;1.97;1.60;;;17.90;58.40;;;;;;5041740;28;20223;-71
2022/09/03 03:48:25;;;;;;;1.80;1.70;;;17.90;58.50;;;;;;5044028;28;20222;-69
2022/09/03 03:50:51;;;;;;;1.87;1.77;;;18.00;58.50;;;;;;5045678;28;20462;-71
2022/09/03 03:53:17;;;;;;;1.83;1.73;;;17.90;58.60;;;;;;5024433;28;20217;-69
2022/09/03 03:55:43;;;;;;;2.03;1.83;;;17.90;58.60;;;;;;5026299;28;20885;-71
2022/09/03 03:58:08;;;;;;;1.63;1.53;;;17.90;58.60;;;;;;5039651;28;20220;-70
2022/09/03 04:00:36;;;;;;;2.03;1.80;;;17.90;58.60;;;;;;5043804;28;20561;-71
2022/09/03 04:03:02;;;;;;;3.10;1.97;;;17.90;58.60;;;;;;5042419;28;20224;-71
2022/09/03 04:05:28;;;;;;;1.90;1.77;;;17.90;58.60;;;;;;5031080;28;20462;-70
2022/09/03 04:07:53;;;;;;;1.83;1.73;;;17.90;58.80;;;;;;5043784;28;20576;-71
2022/09/03 04:10:19;;;;;;;2.10;2.00;;;17.90;58.90;;;;;;5045779;28;20215;-71
2022/09/03 04:12:45;;;;;;;4.40;2.40;;;17.90;58.80;;;;;;5031983;28;20212;-71
2022/09/03 04:15:10;;;;;;;1.87;1.77;;;17.90;59.00;;;;;;5047055;28;20269;-70
2022/09/03 04:17:36;;;;;;;2.20;2.10;;;17.90;59.20;;;;;;5041835;28;20223;-70
2022/09/03 04:20:03;;;;;;;2.40;2.20;;;17.80;59.00;;;;;;5045115;28;20222;-69
2022/09/03 04:22:28;;;;;;;2.93;1.87;;;17.80;58.90;;;;;;5048391;28;20277;-70
2022/09/03 04:24:54;;;;;;;1.80;1.70;;;17.80;59.40;;;;;;5048521;28;20454;-69
2022/09/03 04:27:20;;;;;;;2.37;2.17;;;17.80;59.40;;;;;;5029571;28;20702;-71
2022/09/03 04:29:45;;;;;;;5.20;2.10;;;17.80;59.20;;;;;;5044988;28;20703;-71
2022/09/03 04:34:56;;;;;;;1.80;1.70;;;17.80;59.20;;;;;;5048187;28;20244;-70
2022/09/03 04:37:22;;;;;;;1.83;1.73;;;17.80;59.20;;;;;;5048223;28;20491;-70
2022/09/03 04:39:47;;;;;;;1.90;1.70;;;17.80;59.20;;;;;;5047838;28;20891;-70
2022/09/03 04:42:13;;;;;;;2.33;2.23;;;17.80;59.20;;;;;;5032233;28;20223;-70
2022/09/03 04:44:39;;;;;;;4.43;2.37;;;17.80;59.30;;;;;;5024499;28;20256;-70
2022/09/03 04:47:05;;;;;;;3.00;1.87;;;17.70;59.30;;;;;;5038064;28;20604;-71
2022/09/03 04:49:31;;;;;;;1.67;1.57;;;17.70;59.60;;;;;;5040628;28;20467;-69
2022/09/03 04:51:57;;;;;;;1.97;1.80;;;17.70;59.50;;;;;;5038953;28;20234;-70
2022/09/03 04:54:22;;;;;;;2.30;1.77;;;17.70;59.60;;;;;;5045649;28;20304;-70
2022/09/03 04:56:48;;;;;;;2.13;2.03;;;17.70;61.30;;;;;;5046675;28;20601;-71
2022/09/03 04:59:14;;;;;;;1.87;1.77;;;17.70;59.90;;;;;;5044327;28;20655;-70
2022/09/03 05:01:42;;;;;;;2.63;2.07;;;17.70;59.80;;;;;;5033023;28;20214;-71
2022/09/03 05:04:08;;;;;;;2.10;2.00;;;17.70;59.90;;;;;;5050612;28;20258;-70
2022/09/03 05:06:35;;;;;;;2.30;2.20;;;17.70;60.10;;;;;;5049740;28;20459;-71
2022/09/03 05:09:02;;;;;;;2.10;1.90;;;17.70;60.00;;;;;;5046824;28;20485;-70
2022/09/03 05:11:28;;;;;;;2.10;2.00;;;17.70;59.90;;;;;;5050470;28;20474;-70
2022/09/03 05:13:57;;;;;;;4.53;2.10;;;17.70;60.00;;;;;;5050809;28;20461;-70
2022/09/03 05:16:24;;;;;;;2.20;2.10;;;17.70;59.90;;;;;;5050677;28;20569;-70
2022/09/03 05:18:54;;;;;;;2.27;2.07;;;17.70;60.60;;;;;;5050630;28;20511;-70
2022/09/03 05:21:21;;;;;;;1.93;1.83;;;17.70;61.00;;;;;;5051984;28;20455;-70
2022/09/03 05:23:49;;;;;;;1.70;1.60;;;17.70;61.00;;;;;;5044756;28;20463;-70
2022/09/03 05:26:18;;;;;;;2.40;2.23;;;17.70;61.20;;;;;;5056236;28;20561;-69
2022/09/03 05:28:44;;;;;;;3.67;1.97;;;17.70;61.60;;;;;;5049521;28;20447;-69
2022/09/03 05:31:12;;;;;;;2.83;2.30;;;17.70;62.40;;;;;;5034098;28;20447;-70
2022/09/03 05:33:47;;;;;;;2.47;2.27;;;17.70;61.80;;;;;;5067227;28;20446;-70
2022/09/03 05:36:18;;;;;;;2.90;2.23;;;17.70;63.00;;;;;;5038355;28;20474;-68
2022/09/03 05:38:46;;;;;;;2.70;2.50;;;17.70;63.30;;;;;;5050317;28;20592;-69
2022/09/03 05:41:13;;;;;;;2.57;2.33;;;17.70;64.50;;;;;;5045683;28;20490;-70
2022/09/03 05:43:40;;;;;;;3.93;2.37;;;17.70;64.60;;;;;;5047162;28;20559;-70
2022/09/03 05:46:16;;;;;;;2.37;2.17;;;17.70;65.70;;;;;;5041922;28;20993;-71
2022/09/03 05:48:42;;;;;;;2.10;2.00;;;17.70;65.60;;;;;;5043311;28;20545;-70
2022/09/03 05:51:09;;;;;;;2.03;1.93;;;17.70;65.40;;;;;;5050145;28;20589;-70
2022/09/03 05:53:36;;;;;;;2.97;2.20;;;17.70;65.50;;;;;;5050738;28;20672;-69
2022/09/03 05:56:05;;;;;;;4.13;2.67;;;17.70;67.30;;;;;;5051481;28;20846;-70
2022/09/03 05:58:37;;;;;;;2.20;2.10;;;17.70;68.80;;;;;;5049846;28;20534;-70
2022/09/03 06:01:31;;;;;;;2.10;2.00;;;17.70;67.90;;;;;;5046666;28;20491;-69
2022/09/03 06:03:58;;;;;;;3.20;3.00;;;17.70;70.90;;;;;;5027577;28;20818;-69
2022/09/03 06:06:25;;;;;;;2.67;2.47;;;17.70;72.40;;;;;;5039292;28;20467;-68
2022/09/03 06:08:57;;;;;;;2.77;2.57;;;17.70;70.10;;;;;;5033208;28;20462;-68
2022/09/03 06:11:26;;;;;;;1.90;1.80;;;17.70;70.00;;;;;;5033178;28;20466;-69
2022/09/03 06:13:53;;;;;;;2.20;2.10;;;17.70;69.60;;;;;;5043363;28;20462;-69
2022/09/03 06:16:20;;;;;;;5.40;2.30;;;17.70;68.60;;;;;;5048959;28;20478;-69
2022/09/03 06:18:46;;;;;;;2.50;2.30;;;17.70;69.60;;;;;;5050549;28;20459;-69
2022/09/03 06:21:13;;;;;;;2.40;2.20;;;17.70;69.80;;;;;;5050395;28;20454;-69
2022/09/03 06:23:40;;;;;;;2.60;2.40;;;17.70;70.40;;;;;;5035834;28;20232;-69
2022/09/03 06:26:11;;;;;;;2.93;2.30;;;17.70;72.60;;;;;;5049313;28;20470;-68
2022/09/03 06:28:40;;;;;;;2.43;2.23;;;17.80;71.20;;;;;;5051212;28;20447;-68
2022/09/03 06:31:13;;;;;;;2.60;2.10;;;17.70;70.20;;;;;;5048467;28;20520;-67
2022/09/03 06:33:41;;;;;;;2.20;2.10;;;17.70;70.40;;;;;;5046064;28;20450;-68
2022/09/03 06:36:13;;;;;;;2.20;2.10;;;17.70;70.80;;;;;;5046704;28;20466;-69
2022/09/03 06:38:39;;;;;;;2.23;1.90;;;17.80;71.50;;;;;;5049095;28;20455;-68
2022/09/03 06:41:25;;;;;;;2.83;2.30;;;17.80;71.90;;;;;;5042744;28;20454;-66
2022/09/03 06:44:13;;;;;;;2.73;2.53;;;17.80;72.00;;;;;;5045040;28;20459;-68
2022/09/03 06:46:42;;;;;;;3.13;2.40;;;17.80;72.20;;;;;;5039507;28;20832;-68
2022/09/03 06:49:09;;;;;;;4.50;2.60;;;17.80;73.10;;;;;;5048282;28;20826;-68
2022/09/03 06:51:37;;;;;;;3.13;2.53;;;17.80;74.40;;;;;;5049211;28;20508;-69
2022/09/03 06:54:05;;;;;;;2.23;2.00;;;17.80;73.90;;;;;;5053139;28;20455;-68
2022/09/03 06:56:31;;;;;;;2.83;2.37;;;17.80;73.30;;;;;;5055803;28;20984;-68
2022/09/03 06:58:59;;;;;;;2.73;2.53;;;17.80;73.10;;;;;;5046533;28;20446;-68
2022/09/03 07:01:29;;;;;;;2.93;2.63;;;17.80;73.10;;;;;;5048938;28;20455;-69
2022/09/03 07:03:57;;;;;;;2.60;2.40;;;17.80;73.70;;;;;;5048217;28;20454;-67
2022/09/03 07:06:26;;;;;;;2.03;1.90;;;17.80;75.00;;;;;;5049605;28;20458;-68
2022/09/03 07:08:53;;;;;;;2.70;2.50;;;17.80;75.30;;;;;;5053018;28;20467;-68
2022/09/03 07:11:25;;;;;;;2.70;2.57;;;17.80;75.30;;;;;;5030098;28;20466;-68
2022/09/03 07:13:52;;;;;;;2.80;2.20;;;17.80;75.70;;;;;;5049221;28;20485;-69
2022/09/03 07:16:23;;;;;;;2.37;2.20;;;17.90;74.50;;;;;;5048140;28;20542;-69
2022/09/03 07:18:50;;;;;;;2.63;2.40;;;17.80;74.90;;;;;;5046511;28;20451;-67
2022/09/03 07:21:19;;;;;;;3.40;2.60;;;17.80;76.70;;;;;;5052432;28;20446;-69
2022/09/03 07:23:45;;;;;;;2.40;2.20;;;17.80;76.50;;;;;;5048374;28;20459;-69
2022/09/03 07:26:15;;;;;;;2.70;2.50;;;17.80;76.80;;;;;;5047981;28;20477;-71
2022/09/03 07:28:42;;;;;;;3.00;2.70;;;17.80;76.80;;;;;;5046781;28;20466;-68
2022/09/03 07:31:07;;;;;;;2.90;2.70;;;17.80;77.10;;;;;;5031646;28;20461;-68
2022/09/03 07:33:33;;;;;;;2.67;2.50;;;17.80;78.20;;;;;;5057071;28;20451;-69
2022/09/03 07:36:27;;;;;;;2.83;2.63;;;17.80;77.90;;;;;;5048251;28;20224;-68
2022/09/03 07:38:57;;;;;;;2.60;2.40;;;17.80;78.30;;;;;;5024284;28;20458;-69
2022/09/03 07:41:25;;;;;;;4.33;2.43;;;17.80;78.80;;;;;;5048682;28;20496;-68
2022/09/03 07:43:52;;;;;;;3.23;2.50;;;17.80;79.20;;;;;;5051431;28;20453;-69
2022/09/03 07:46:23;;;;;;;2.70;2.60;;;17.80;79.90;;;;;;5046266;28;20575;-68
2022/09/03 07:48:55;;;;;;;2.60;2.40;;;17.80;80.00;;;;;;5051881;28;20495;-68
2022/09/03 07:51:25;;;;;;;2.70;2.50;;;17.80;80.50;;;;;;5038205;28;20586;-69
2022/09/03 07:53:53;;;;;;;9.70;4.10;;;17.80;80.40;;;;;;5042642;28;20466;-68
2022/09/03 07:56:19;;;;;;;2.77;2.57;;;17.80;81.00;;;;;;5051712;28;20568;-68
2022/09/03 07:58:46;;;;;;;2.90;2.70;;;17.80;82.20;;;;;;5052706;28;20989;-68
2022/09/03 08:01:14;;;;;;;3.30;2.53;;;17.80;82.80;;;;;;5051156;28;20473;-67
2022/09/03 08:03:48;;;;;;;3.10;2.90;;;17.80;83.60;;;;;;5032955;28;20465;-68
2022/09/03 08:06:15;;;;;;;3.07;2.87;;;17.80;85.10;;;;;;5051963;28;20476;-68
2022/09/03 08:08:43;;;;;;;2.90;2.70;;;17.80;85.40;;;;;;5052726;28;20454;-68
2022/09/03 08:11:13;;;;;;;2.73;2.53;;;17.80;84.90;;;;;;5052862;28;20458;-67
2022/09/03 08:13:56;;;;;;;2.87;2.60;;;17.80;85.80;;;;;;5051843;28;20460;-69
2022/09/03 08:16:23;;;;;;;2.70;2.50;;;17.80;85.40;;;;;;5032142;28;20447;-68
2022/09/03 08:18:50;;;;;;;2.67;2.47;;;17.80;85.40;;;;;;5035535;28;20496;-67
2022/09/03 08:21:18;;;;;;;3.30;2.40;;;17.80;85.10;;;;;;5052332;28;20443;-68
2022/09/03 08:23:46;;;;;;;2.40;2.30;;;17.90;87.10;;;;;;5051275;28;20438;-69
2022/09/03 08:26:13;;;;;;;2.97;2.77;;;17.90;88.10;;;;;;5049732;28;20540;-68
2022/09/03 08:28:40;;;;;;;2.83;2.60;;;17.90;88.80;;;;;;5051067;28;20453;-68
2022/09/03 08:31:10;;;;;;;3.83;2.53;;;17.90;89.70;;;;;;5053070;28;20450;-68
2022/09/03 08:33:37;;;;;;;2.50;2.30;;;17.90;89.40;;;;;;5047894;28;20443;-68
2022/09/03 08:36:08;;;;;;;2.50;2.30;;;17.90;88.70;;;;;;5039684;28;20446;-67
2022/09/03 08:38:35;;;;;;;2.57;2.37;;;17.90;88.40;;;;;;5050550;28;20568;-67
2022/09/03 08:41:15;;;;;;;2.83;2.50;;;17.90;88.70;;;;;;5050833;28;20958;-68
2022/09/03 08:44:18;;;;;;;2.87;2.67;;;18.00;89.70;;;;;;5032997;28;20547;-68
2022/09/03 08:47:09;;;;;;;4.90;2.73;;;18.00;90.50;;;;;;5044209;28;20562;-67
2022/09/03 08:49:48;;;;;;;3.20;2.90;;;18.00;90.50;;;;;;5050251;28;20458;-69
2022/09/03 08:52:26;;;;;;;5.77;3.00;;;18.00;89.90;;;;;;5050934;28;20999;-69
2022/09/03 08:55:00;;;;;;;2.87;2.67;;;18.00;90.10;;;;;;5052003;28;20474;-69
2022/09/03 08:57:26;;;;;;;3.20;2.83;;;18.00;89.50;;;;;;5043853;28;20459;-68
2022/09/03 08:59:55;;;;;;;3.23;2.57;;;18.00;89.60;;;;;;5039646;28;20456;-69
2022/09/03 09:02:37;;;;;;;3.37;3.07;;;18.00;89.50;;;;;;5039296;28;20463;-68
2022/09/03 09:05:09;;;;;;;2.80;2.60;;;18.00;90.10;;;;;;5042817;28;20908;-69
2022/09/03 09:08:03;;;;;;;2.60;2.40;;;18.00;90.00;;;;;;5044248;28;21042;-68
2022/09/03 09:10:54;;;;;;;2.83;2.63;;;18.10;90.50;;;;;;5054347;28;20946;-68
2022/09/03 09:13:19;;;;;;;3.43;3.13;;;18.10;91.90;;;;;;5040928;28;20505;-68
2022/09/03 09:16:07;;;;;;;3.33;3.03;;;18.10;90.70;;;;;;5038328;28;20467;-69
2022/09/03 09:19:10;;;;;;;5.87;3.10;;;18.20;92.20;;;;;;5043238;28;20231;-68
2022/09/03 09:21:48;;;;;;;3.03;2.83;;;18.20;92.20;;;;;;5045787;28;21013;-68
2022/09/03 09:24:25;;;;;;;4.80;3.30;;;18.30;92.40;;;;;;5041703;28;20454;-68
2022/09/03 09:26:59;;;;;;;2.70;2.50;;;18.30;92.60;;;;;;5039701;28;20470;-68
2022/09/03 09:29:33;;;;;;;3.20;3.00;;;18.30;92.50;;;;;;5022257;28;20470;-68
2022/09/03 09:31:59;;;;;;;3.23;3.03;;;18.40;92.70;;;;;;5030850;28;20483;-68
2022/09/03 09:34:26;;;;;;;3.60;3.30;;;18.40;93.00;;;;;;5035477;28;20454;-68
2022/09/03 09:36:54;;;;;;;3.10;2.90;;;18.50;93.10;;;;;;5033989;28;20470;-68
2022/09/03 09:39:21;;;;;;;2.83;2.63;;;18.50;94.00;;;;;;5037027;28;20455;-68
2022/09/03 09:42:10;;;;;;;3.27;3.00;;;18.60;94.50;;;;;;5037332;28;20456;-68
2022/09/03 09:44:41;;;;;;;2.90;2.70;;;18.70;94.00;;;;;;5043671;28;20477;-68
2022/09/03 09:47:13;;;;;;;5.20;3.37;;;18.70;94.40;;;;;;5040948;28;20486;-68
2022/09/03 09:49:44;;;;;;;3.27;3.07;;;18.80;94.30;;;;;;5055156;28;20455;-68
2022/09/03 09:52:13;;;;;;;3.00;2.80;;;18.80;94.70;;;;;;5050906;28;20541;-67
2022/09/03 09:54:41;;;;;;;2.60;2.40;;;18.90;94.90;;;;;;5040797;28;20973;-67
2022/09/03 09:57:16;;;;;;;4.67;3.37;;;19.00;95.60;;;;;;5039411;28;20503;-68
2022/09/03 09:59:43;;;;;;;3.43;3.23;;;19.10;95.40;;;;;;5041740;28;20474;-69
2022/09/03 10:02:27;;;;;;;4.10;3.80;;;19.10;94.90;;;;;;5045297;28;20473;-68
2022/09/03 10:05:10;;;;;;;3.23;3.03;;;19.20;96.20;;;;;;5033338;28;20463;-68
2022/09/03 10:07:36;;;;;;;3.63;3.33;;;19.30;95.30;;;;;;5047285;28;20477;-68
2022/09/03 10:10:18;;;;;;;4.00;3.70;;;19.30;96.00;;;;;;5039429;28;20474;-69
2022/09/03 10:12:58;;;;;;;4.60;4.20;;;19.50;97.20;;;;;;5022280;28;20216;-67
2022/09/03 10:15:41;;;;;;;4.50;3.63;;;19.70;97.80;;;;;;5038180;28;20454;-68
2022/09/03 10:18:33;;;;;;;4.60;4.30;;;19.80;97.80;;;;;;5040470;28;20459;-68
2022/09/03 10:21:14;;;;;;;3.93;3.53;;;20.00;98.00;;;;;;5036562;28;20462;-68
2022/09/03 10:23:59;;;;;;;4.00;3.57;;;20.10;97.60;;;;;;5042275;28;20469;-69
2022/09/03 10:26:29;;;;;;;5.50;4.20;;;20.10;97.70;;;;;;5039552;28;20474;-67
2022/09/03 10:29:01;;;;;;;3.80;3.50;;;20.20;97.50;;;;;;5049608;28;20463;-67
2022/09/03 10:31:35;;;;;;;4.23;3.83;;;20.20;97.90;;;;;;5038592;28;20495;-70
2022/09/03 10:34:15;;;;;;;4.87;4.43;;;20.30;98.10;;;;;;5040409;28;20485;-67
2022/09/03 10:36:49;;;;;;;4.40;4.00;;;20.40;97.50;;;;;;5042123;28;20827;-69
2022/09/03 10:39:40;;;;;;;4.20;3.80;;;20.40;97.80;;;;;;5040911;28;20442;-69
2022/09/03 10:42:20;;;;;;;5.10;4.20;;;20.50;98.10;;;;;;5042427;28;20460;-68
2022/09/03 10:45:03;;;;;;;7.63;4.30;;;20.50;96.70;;;;;;5044987;28;20446;-68
2022/09/03 10:47:37;;;;;;;5.63;4.57;;;20.60;98.10;;;;;;5029417;28;20473;-68
2022/09/03 10:50:16;;;;;;;4.47;4.07;;;20.70;98.20;;;;;;5039777;28;20455;-67
2022/09/03 10:52:41;;;;;;;5.57;5.03;;;20.80;98.30;;;;;;5053971;28;20447;-68
2022/09/03 10:55:37;;;;;;;4.93;4.43;;;20.80;97.20;;;;;;5037755;28;20806;-68
2022/09/03 10:58:37;;;;;;;5.33;4.90;;;20.70;97.30;;;;;;5040591;28;20228;-68
2022/09/03 11:01:14;;;;;;;4.93;4.50;;;20.80;97.70;;;;;;5042316;28;20457;-69
2022/09/03 11:04:04;;;;;;;5.63;4.80;;;20.80;97.40;;;;;;5042849;28;20467;-67
2022/09/03 11:06:42;;;;;;;4.30;4.00;;;20.90;98.20;;;;;;5045945;28;20921;-68
2022/09/03 11:09:23;;;;;;;5.20;4.33;;;21.00;97.30;;;;;;5025186;28;20458;-68
2022/09/03 11:11:55;;;;;;;3.60;3.30;;;21.10;98.30;;;;;;5027189;28;20509;-69
2022/09/03 11:14:44;;;;;;;4.50;3.40;;;21.20;98.00;;;;;;5061515;28;20461;-68
2022/09/03 11:17:47;;;;;;;4.33;3.50;;;21.30;98.10;;;;;;5017064;28;20535;-68
2022/09/03 11:20:13;;;;;;;4.80;4.40;;;21.40;99.00;;;;;;5034683;28;20504;-68
2022/09/03 11:22:42;;;;;;;4.23;3.93;;;21.50;98.60;;;;;;5039981;28;20459;-69
2022/09/03 11:25:12;;;;;;;4.90;4.50;;;21.60;99.10;;;;;;5029576;28;20281;-69
2022/09/03 11:27:42;;;;;;;5.33;4.70;;;21.80;99.40;;;;;;5044214;28;20505;-68
2022/09/03 11:30:23;;;;;;;4.93;4.63;;;21.90;98.70;;;;;;5038944;28;20552;-67
2022/09/03 11:32:53;;;;;;;5.40;4.90;;;22.00;98.70;;;;;;5022072;28;20984;-69
2022/09/03 11:35:41;;;;;;;4.80;4.40;;;22.00;98.00;;;;;;5040568;28;20454;-70
2022/09/03 11:38:17;;;;;;;5.10;4.60;;;22.00;98.20;;;;;;5028310;28;20826;-69
2022/09/03 11:41:03;;;;;;;4.87;4.47;;;22.10;98.30;;;;;;5043434;28;20969;-69
2022/09/03 11:43:31;;;;;;;5.60;5.20;;;22.10;98.20;;;;;;5046336;28;20460;-70
2022/09/03 11:46:12;;;;;;;5.67;5.07;;;22.20;98.10;;;;;;5036571;28;20480;-69
2022/09/03 11:48:48;;;;;;;5.07;4.67;;;22.20;97.70;;;;;;5045753;28;20557;-69
2022/09/03 11:51:32;;;;;;;6.80;5.07;;;22.20;98.00;;;;;;5038648;28;20450;-69
2022/09/03 11:54:22;;;;;;;4.67;4.37;;;22.30;98.00;;;;;;5025817;28;20461;-68
2022/09/03 11:56:49;;;;;;;7.03;5.40;;;22.30;97.90;;;;;;5037776;28;20454;-69
2022/09/03 11:59:25;;;;;;;5.03;4.53;;;22.30;97.40;;;;;;5042212;28;20533;-69
2022/09/03 12:02:08;;;;;;;5.03;4.70;;;22.40;97.70;;;;;;5045652;28;20449;-69
2022/09/03 12:04:56;;;;;;;4.83;4.23;;;22.40;97.40;;;;;;5024394;28;20466;-69
2022/09/03 12:07:33;;;;;;;4.27;3.87;;;22.40;97.20;;;;;;5038403;28;20474;-69
2022/09/03 12:10:09;;;;;;;4.60;4.20;;;22.50;97.00;;;;;;5038526;28;20457;-68
2022/09/03 12:12:53;;;;;;;4.33;4.03;;;22.60;97.00;;;;;;5023673;28;20454;-69
2022/09/03 12:15:38;;;;;;;7.03;4.83;;;22.60;97.00;;;;;;5042268;28;20453;-69
2022/09/03 12:18:21;;;;;;;11.50;5.97;;;22.70;97.00;;;;;;5042188;28;20559;-68
2022/09/03 12:21:00;;;;;;;6.60;6.10;;;22.70;96.90;;;;;;5060975;28;20445;-69
2022/09/03 12:23:33;;;;;;;6.33;5.83;;;22.70;96.80;;;;;;5044134;28;20442;-69
2022/09/03 12:26:08;;;;;;;6.27;5.67;;;22.70;96.70;;;;;;5041908;28;20522;-68
2022/09/03 12:28:36;;;;;;;6.43;5.97;;;22.80;96.70;;;;;;5045454;28;20944;-69
2022/09/03 12:31:13;;;;;;;5.90;5.40;;;22.80;96.70;;;;;;5055993;28;20457;-68
2022/09/03 12:33:42;;;;;;;5.33;4.93;;;22.80;96.60;;;;;;5025704;28;20473;-69
2022/09/03 12:36:08;;;;;;;6.43;5.93;;;22.80;96.50;;;;;;5045240;28;20489;-69
2022/09/03 12:38:34;;;;;;;5.90;5.40;;;22.90;96.60;;;;;;5045909;28;20552;-69
2022/09/03 12:41:00;;;;;;;5.87;5.27;;;22.90;96.60;;;;;;5045127;28;21028;-69
2022/09/03 12:43:28;;;;;;;5.20;4.80;;;22.90;96.20;;;;;;5046629;28;20227;-69
2022/09/03 12:45:53;;;;;;;5.87;5.37;;;22.90;96.30;;;;;;5042718;28;20219;-69
2022/09/03 12:48:20;;;;;;;5.17;4.77;;;22.90;96.30;;;;;;5047197;28;20460;-69
2022/09/03 12:50:48;;;;;;;5.33;4.93;;;22.90;96.20;;;;;;5037419;28;20215;-69
2022/09/03 12:53:23;;;;;;;5.23;4.73;;;22.90;96.10;;;;;;5045987;28;20465;-68
2022/09/03 12:55:55;;;;;;;4.70;4.40;;;22.90;95.90;;;;;;5034549;28;20980;-69
2022/09/03 12:58:35;;;;;;;5.27;4.77;;;22.90;95.90;;;;;;5045782;28;20453;-69
2022/09/03 13:01:08;;;;;;;5.43;4.93;;;23.00;96.10;;;;;;5045345;28;20832;-69
2022/09/03 13:03:48;;;;;;;5.00;4.60;;;23.00;95.70;;;;;;5055817;28;21003;-68
2022/09/03 13:06:20;;;;;;;5.50;5.00;;;23.00;95.50;;;;;;5026081;28;20482;-70
2022/09/03 13:08:54;;;;;;;5.30;4.80;;;23.00;95.90;;;;;;5041701;28;20446;-69
2022/09/03 13:11:23;;;;;;;5.50;5.00;;;23.00;95.70;;;;;;5045609;28;20981;-69
2022/09/03 13:14:16;;;;;;;4.60;4.30;;;23.10;95.60;;;;;;5047415;28;20511;-69
2022/09/03 13:16:45;;;;;;;5.73;5.20;;;23.00;95.20;;;;;;5026880;28;20455;-69
2022/09/03 13:19:10;;;;;;;5.40;5.00;;;23.00;95.50;;;;;;5046857;28;20548;-69
2022/09/03 13:21:53;;;;;;;6.53;5.50;;;23.10;96.00;;;;;;5030263;28;20533;-69
2022/09/03 13:24:38;;;;;;;5.43;4.93;;;23.20;96.30;;;;;;5045028;28;20211;-69
2022/09/03 13:27:40;;;;;;;5.27;4.97;;;23.20;95.50;;;;;;5045764;28;20564;-68